Time;durP1;ratioP1;P1;durP2;ratioP2;P2;SDS_P1;SDS_P2;PMS_P1;PMS_P2;Temp;Humidity;BMP_temperature;BMP_pressure;BME280_temperature;BME280_humidity;BME280_pressure;Samples;Min_cycle;Max_cycle;Signal;HPM_P1;HPM_P2
2023/03/13 09:07:54;;;;;;;4.05;0.90;;;;;;;12.07;77.35;95711.56;2083659;28;20567;-64
2023/03/13 09:08:57;;;;;;;5.95;0.98;;;;;;;12.17;76.69;95712.63;2082892;28;20324;-64
2023/03/13 09:09:58;;;;;;;3.17;0.90;;;;;;;12.29;75.86;95703.13;2084430;28;20210;-65
2023/03/13 09:11:03;;;;;;;3.47;1.00;;;;;;;12.45;75.81;95717.81;2081522;28;20208;-66
2023/03/13 09:12:05;;;;;;;1.50;0.90;;;;;;;12.72;74.72;95720.34;2079102;28;20204;-65
2023/03/13 09:13:06;;;;;;;1.90;0.90;;;;;;;12.75;74.37;95701.81;2079997;28;20216;-65
2023/03/13 09:14:09;;;;;;;2.75;1.00;;;;;;;13.01;73.79;95723.59;2079001;28;20232;-65
2023/03/13 09:15:11;;;;;;;2.38;1.17;;;;;;;13.11;72.26;95721.16;2081928;28;20197;-65
2023/03/13 09:16:15;;;;;;;3.78;1.25;;;;;;;13.69;71.15;95710.16;2078909;28;20219;-65
2023/03/13 09:17:17;;;;;;;2.08;1.05;;;;;;;14.18;69.41;95710.97;2079762;28;20197;-65
2023/03/13 09:18:18;;;;;;;1.95;1.10;;;;;;;14.51;68.21;95728.66;2081325;28;20695;-65
2023/03/13 09:19:20;;;;;;;2.60;0.95;;;;;;;14.85;67.35;95723.50;2079981;28;20194;-65
2023/03/13 09:20:21;;;;;;;1.23;0.80;;;;;;;14.93;66.09;95722.94;2081662;28;20205;-65
2023/03/13 09:21:25;;;;;;;3.90;1.23;;;;;;;14.16;67.69;95726.84;2081701;28;20196;-66
2023/03/13 09:22:27;;;;;;;2.65;0.82;;;;;;;13.62;69.13;95733.38;2081687;28;20540;-65
2023/03/13 09:24:51;;;;;;;1.73;0.75;;;;;;;13.27;71.01;95748.94;2083795;28;21213;-65
2023/03/13 09:25:55;;;;;;;2.65;1.20;;;;;;;13.26;71.13;95742.03;2076423;28;20225;-65
2023/03/13 09:32:54;;;;;;;3.30;1.00;;;;;;;12.96;72.27;95753.69;2082867;28;20560;-65
2023/03/13 09:33:57;;;;;;;3.25;1.00;;;;;;;13.07;72.21;95756.41;2081522;28;20197;-64
2023/03/13 09:34:58;;;;;;;2.13;1.23;;;;;;;13.06;71.70;95752.97;2081068;28;20204;-65
2023/03/13 09:36:00;;;;;;;3.83;1.30;;;;;;;13.15;71.62;95748.84;2083029;28;20195;-64
2023/03/13 09:37:02;;;;;;;6.30;0.90;;;;;;;13.93;69.05;95749.53;2081323;28;20204;-64
2023/03/13 09:38:03;;;;;;;2.25;0.88;;;;;;;14.52;67.11;95746.09;2078661;28;20660;-65
2023/03/13 09:39:07;;;;;;;1.40;0.80;;;;;;;14.83;65.99;95749.06;2079805;28;20292;-65
2023/03/13 09:40:14;;;;;;;2.75;1.10;;;;;;;14.68;66.11;95737.91;2081407;28;20557;-66
2023/03/13 09:41:20;;;;;;;8.82;1.48;;;;;;;14.68;66.38;95744.97;2085873;28;20200;-66
2023/03/13 09:42:39;;;;;;;4.03;0.90;;;;;;;14.77;65.82;95730.31;2085899;28;20676;-65
2023/03/13 09:43:50;;;;;;;4.10;0.75;;;;;;;14.81;65.98;95740.44;2079527;28;20680;-65
2023/03/13 09:44:59;;;;;;;2.63;1.00;;;;;;;14.95;65.16;95731.50;2079822;28;20205;-65
2023/03/13 09:46:04;;;;;;;5.72;1.35;;;;;;;15.21;65.08;95722.56;2082648;28;20601;-65
2023/03/13 09:47:22;;;;;;;2.53;1.02;;;;;;;15.57;63.61;95720.66;2078773;28;20208;-65
2023/03/13 09:48:31;;;;;;;3.67;1.30;;;;;;;15.50;63.78;95725.53;2082552;28;20231;-65
2023/03/13 09:49:53;;;;;;;3.08;0.98;;;;;;;14.43;66.78;95711.81;2082071;28;20211;-65
2023/03/13 09:51:11;;;;;;;2.30;0.98;;;;;;;13.93;68.19;95723.31;2085746;28;20630;-65
2023/03/13 09:52:21;;;;;;;2.53;0.90;;;;;;;13.68;69.74;95727.69;2084506;28;20200;-64
2023/03/13 09:53:36;;;;;;;7.57;1.00;;;;;;;13.68;69.60;95719.81;2081139;28;20302;-64
2023/03/13 09:54:42;;;;;;;2.08;1.02;;;;;;;13.84;69.03;95724.81;2078998;28;20193;-64
2023/03/13 09:55:45;;;;;;;1.50;1.00;;;;;;;13.88;68.53;95739.38;2080216;28;20205;-65
2023/03/13 09:56:54;;;;;;;2.33;1.00;;;;;;;13.87;68.79;95723.75;2080944;28;20197;-64
2023/03/13 09:58:03;;;;;;;1.83;1.00;;;;;;;14.32;68.03;95716.06;2075071;28;20268;-64
2023/03/13 09:59:18;;;;;;;3.50;1.10;;;;;;;15.28;65.55;95721.97;2078854;28;20208;-64
2023/03/13 10:00:25;;;;;;;2.90;0.90;;;;;;;15.26;64.68;95723.03;2084989;28;20215;-64
2023/03/13 10:01:30;;;;;;;2.13;1.15;;;;;;;14.32;67.43;95707.34;2082599;28;20600;-64
2023/03/13 10:02:35;;;;;;;2.53;1.10;;;;;;;14.24;68.40;95709.72;2078816;28;20229;-65
2023/03/13 10:03:51;;;;;;;2.47;0.90;;;;;;;14.53;67.20;95710.97;2078272;28;20225;-65
2023/03/13 10:05:01;;;;;;;2.10;1.10;;;;;;;14.84;65.87;95708.69;2078830;28;20228;-65
2023/03/13 10:06:16;;;;;;;2.92;1.30;;;;;;;15.38;64.96;95714.19;2081310;28;20193;-64
2023/03/13 10:07:20;;;;;;;2.90;0.90;;;;;;;15.97;63.16;95709.56;2082446;28;20219;-64
2023/03/13 10:08:24;;;;;;;1.65;0.98;;;;;;;16.11;62.62;95706.66;2078440;28;20659;-64
2023/03/13 10:09:30;;;;;;;4.30;0.88;;;;;;;16.24;61.79;95693.31;2079720;28;20534;-64
2023/03/13 10:10:43;;;;;;;2.33;0.80;;;;;;;16.48;61.44;95714.16;2082801;28;20524;-64
2023/03/13 10:12:04;;;;;;;3.97;1.30;;;;;;;16.48;61.69;95702.75;2083160;28;20558;-64
2023/03/13 10:13:33;;;;;;;2.95;1.17;;;;;;;16.61;60.89;95713.94;2082093;28;20205;-64
2023/03/13 10:15:00;;;;;;;1.80;0.90;;;;;;;17.11;60.18;95707.19;2086281;28;20212;-64
2023/03/13 10:16:09;;;;;;;3.65;1.30;;;;;;;17.29;59.74;95694.19;2083506;28;20220;-64
2023/03/13 10:17:31;;;;;;;2.03;1.10;;;;;;;17.65;58.42;95702.53;2081978;28;20541;-64
2023/03/13 10:18:32;;;;;;;1.70;0.82;;;;;;;16.55;60.90;95696.00;2081766;28;20213;-65
2023/03/13 10:19:38;;;;;;;2.85;1.17;;;;;;;16.00;62.46;95691.72;2080713;28;20840;-64
2023/03/13 10:20:42;;;;;;;4.82;1.30;;;;;;;15.70;63.85;95699.44;2081383;28;20198;-64
2023/03/13 10:21:52;;;;;;;2.10;0.90;;;;;;;15.34;64.53;95703.06;2080214;28;20645;-64
2023/03/13 10:23:02;;;;;;;1.63;1.05;;;;;;;15.00;64.93;95695.19;2082305;28;20193;-64
2023/03/13 10:24:12;;;;;;;3.75;0.95;;;;;;;14.85;65.83;95697.22;2084826;28;20664;-64
2023/03/13 10:25:37;;;;;;;2.25;1.08;;;;;;;14.93;66.29;95701.91;2083274;28;20200;-65
2023/03/13 10:26:39;;;;;;;3.92;1.15;;;;;;;14.73;66.79;95692.91;2078058;28;20209;-65
2023/03/13 10:27:48;;;;;;;4.70;0.98;;;;;;;14.71;67.36;95692.19;2080987;28;20193;-64
2023/03/13 10:28:52;;;;;;;1.73;1.00;;;;;;;14.78;66.72;95690.75;2080614;28;20232;-64
2023/03/13 10:29:53;;;;;;;4.65;0.90;;;;;;;14.71;66.87;95693.97;2081069;28;21033;-65
2023/03/13 10:31:24;;;;;;;2.70;1.20;;;;;;;14.77;66.12;95691.72;2082184;28;20201;-64
2023/03/13 10:32:26;;;;;;;3.25;1.45;;;;;;;14.72;66.38;95701.75;2080846;28;20243;-64
2023/03/13 10:33:28;;;;;;;2.38;1.35;;;;;;;14.58;66.75;95688.81;2080328;28;20221;-64
2023/03/13 10:34:55;;;;;;;4.45;1.60;;;;;;;14.54;67.28;95685.56;2080016;28;20208;-65
2023/03/13 10:36:05;;;;;;;3.13;1.40;;;;;;;14.59;67.29;95688.69;2078655;28;20209;-64
2023/03/13 10:37:13;;;;;;;2.83;1.10;;;;;;;14.55;67.24;95697.75;2079619;28;20276;-65
2023/03/13 10:38:18;;;;;;;3.38;1.27;;;;;;;14.42;67.25;95692.56;2077832;28;20311;-64
2023/03/13 10:39:22;;;;;;;2.08;1.10;;;;;;;14.46;67.67;95696.66;2080853;28;20208;-64
2023/03/13 10:40:26;;;;;;;4.70;1.60;;;;;;;14.39;67.80;95702.47;2080271;28;20200;-64
2023/03/13 10:41:30;;;;;;;2.40;1.20;;;;;;;14.33;68.02;95701.97;2081642;28;20238;-64
2023/03/13 10:42:39;;;;;;;2.28;1.10;;;;;;;14.34;67.94;95695.75;2080551;28;20208;-64
2023/03/13 10:43:50;;;;;;;2.38;1.20;;;;;;;14.36;67.34;95691.25;2080258;28;20220;-64
2023/03/13 10:44:58;;;;;;;5.10;1.30;;;;;;;14.34;67.78;95684.44;2078298;28;20284;-64
2023/03/13 10:46:00;;;;;;;9.45;2.35;;;;;;;14.33;67.77;95680.13;2075412;28;20213;-64
2023/03/13 10:47:02;;;;;;;3.38;1.55;;;;;;;14.33;67.41;95680.94;2075510;28;20201;-64
2023/03/13 10:48:18;;;;;;;4.82;1.42;;;;;;;14.49;67.40;95680.66;2075369;28;20208;-64
2023/03/13 10:49:22;;;;;;;8.50;1.42;;;;;;;14.65;66.99;95669.00;2082963;28;20208;-64
2023/03/13 10:50:25;;;;;;;6.45;1.38;;;;;;;14.86;66.14;95671.78;2079697;28;20196;-64
2023/03/13 10:51:54;;;;;;;3.65;1.42;;;;;;;15.59;63.79;95663.44;2075745;28;20198;-64
2023/03/13 10:52:57;;;;;;;3.10;1.20;;;;;;;16.14;62.28;95660.78;2073836;28;20221;-65
2023/03/13 10:53:59;;;;;;;2.70;1.05;;;;;;;15.64;63.29;95656.03;2075735;28;20232;-64
2023/03/13 10:55:06;;;;;;;1.80;1.10;;;;;;;15.32;63.71;95662.91;2077532;28;20289;-64
2023/03/13 10:56:13;;;;;;;7.97;1.30;;;;;;;15.38;64.29;95669.47;2078408;28;20193;-64
2023/03/13 10:57:17;;;;;;;2.63;0.98;;;;;;;15.41;64.01;95668.41;2076800;28;20198;-64
2023/03/13 10:58:32;;;;;;;3.00;1.27;;;;;;;15.67;63.31;95672.41;2073766;28;20263;-64
2023/03/13 10:59:41;;;;;;;3.15;0.90;;;;;;;15.42;63.91;95673.53;2074885;28;20208;-65
2023/03/13 11:00:43;;;;;;;3.75;1.30;;;;;;;14.99;65.16;95674.28;2075259;28;20197;-64
2023/03/13 11:01:44;;;;;;;3.80;1.35;;;;;;;14.81;65.74;95669.50;2075518;28;20201;-65
2023/03/13 11:02:46;;;;;;;2.40;1.10;;;;;;;14.74;66.39;95667.47;2075927;28;20208;-64
2023/03/13 11:03:50;;;;;;;2.17;1.08;;;;;;;14.72;66.65;95666.75;2073823;28;20217;-64
2023/03/13 11:04:52;;;;;;;5.65;1.30;;;;;;;14.77;66.66;95660.19;2077149;28;20197;-64
2023/03/13 11:05:59;;;;;;;3.45;1.13;;;;;;;14.75;66.52;95630.53;2076705;28;20787;-65
2023/03/13 11:07:04;;;;;;;1.90;1.10;;;;;;;15.10;65.87;95663.78;2077733;28;20213;-64
2023/03/13 11:08:20;;;;;;;3.65;1.35;;;;;;;15.48;64.85;95656.44;2075705;28;20280;-64
2023/03/13 11:09:23;;;;;;;2.17;1.10;;;;;;;15.39;64.39;95651.88;2076534;28;20714;-64
2023/03/13 11:10:31;;;;;;;9.32;1.25;;;;;;;15.26;64.37;95650.25;2072731;28;20288;-64
2023/03/13 11:11:52;;;;;;;1.85;1.00;;;;;;;15.34;64.38;95647.00;2073767;28;20274;-64
2023/03/13 11:12:56;;;;;;;3.42;1.00;;;;;;;15.30;64.54;95640.31;2075724;28;20198;-65
2023/03/13 11:14:12;;;;;;;1.92;0.90;;;;;;;15.21;64.50;95639.28;2076349;28;20197;-64
2023/03/13 11:15:27;;;;;;;6.45;1.10;;;;;;;15.11;65.02;95638.31;2076169;28;20197;-64
2023/03/13 11:16:28;;;;;;;2.85;1.10;;;;;;;15.07;65.07;95634.25;2077051;28;20834;-64
2023/03/13 11:17:40;;;;;;;3.40;1.70;;;;;;;15.08;65.15;95628.88;2076128;28;20599;-64
2023/03/13 11:18:59;;;;;;;8.15;1.65;;;;;;;15.15;65.15;95635.31;2075462;28;20225;-64
2023/03/13 11:20:19;;;;;;;1.77;0.82;;;;;;;15.22;64.98;95627.78;2077245;28;20204;-64
2023/03/13 11:21:50;;;;;;;2.78;1.65;;;;;;;15.39;64.45;95629.06;2076152;28;20222;-65
2023/03/13 11:23:10;;;;;;;3.17;1.10;;;;;;;15.82;63.38;95615.09;2073203;28;20193;-64
2023/03/13 11:24:25;;;;;;;1.85;0.90;;;;;;;15.77;63.11;95619.88;2075251;28;20213;-64
2023/03/13 11:25:43;;;;;;;2.63;1.17;;;;;;;15.64;63.64;95592.88;2076530;28;20197;-64
2023/03/13 11:27:08;;;;;;;2.33;1.17;;;;;;;15.82;62.96;95617.72;2076245;28;20209;-65
2023/03/13 11:28:26;;;;;;;2.28;1.38;;;;;;;16.02;62.68;95619.66;2073830;28;20209;-64
2023/03/13 11:29:53;;;;;;;4.53;1.00;;;;;;;16.31;62.14;95609.34;2075796;28;20625;-64
2023/03/13 11:31:02;;;;;;;8.82;1.50;;;;;;;17.35;59.70;95598.69;2076526;28;20216;-64
2023/03/13 11:32:16;;;;;;;3.03;1.58;;;;;;;18.09;58.39;95596.53;2077273;28;20236;-64
2023/03/13 11:33:20;;;;;;;4.35;1.20;;;;;;;17.36;58.70;95600.34;2074665;28;20230;-65
2023/03/13 11:34:42;;;;;;;2.50;1.00;;;;;;;17.03;59.87;95593.63;2075687;28;20225;-64
2023/03/13 11:35:56;;;;;;;2.92;0.95;;;;;;;17.34;58.57;95589.09;2074989;28;20212;-65
2023/03/13 11:37:08;;;;;;;2.05;1.23;;;;;;;17.61;57.52;95588.44;2076709;28;20809;-65
2023/03/13 11:38:22;;;;;;;3.13;1.30;;;;;;;18.10;56.53;95592.91;2074849;28;20217;-64
2023/03/13 11:39:49;;;;;;;4.15;0.88;;;;;;;18.31;56.27;95582.19;2074469;28;20229;-64
2023/03/13 11:41:27;;;;;;;6.93;1.02;;;;;;;17.25;58.64;95574.91;2074542;28;20225;-66
2023/03/13 11:42:44;;;;;;;2.70;1.25;;;;;;;16.80;60.03;95586.69;2074670;28;20596;-66
2023/03/13 11:43:54;;;;;;;7.10;1.77;;;;;;;16.66;60.46;95597.59;2071775;28;20222;-66
2023/03/13 11:45:05;;;;;;;5.40;1.10;;;;;;;16.56;60.89;95576.47;2074207;28;20212;-66
2023/03/13 11:46:21;;;;;;;1.70;0.95;;;;;;;17.29;59.47;95571.06;2075699;28;20193;-66
2023/03/13 11:47:28;;;;;;;2.70;1.00;;;;;;;16.62;60.00;95570.69;2075931;28;20280;-67
2023/03/13 11:48:36;;;;;;;2.40;1.25;;;;;;;16.21;61.25;95556.59;2074788;28;20677;-66
2023/03/13 11:49:56;;;;;;;6.53;1.13;;;;;;;16.28;61.44;95575.38;2076792;28;20194;-67
2023/03/13 11:51:06;;;;;;;2.85;1.00;;;;;;;16.61;60.94;95557.63;2075092;28;20318;-66
2023/03/13 11:52:16;;;;;;;1.83;1.00;;;;;;;17.29;59.23;95562.28;2074811;28;20193;-67
2023/03/13 11:53:30;;;;;;;3.22;1.15;;;;;;;16.89;60.53;95555.25;2074958;28;20238;-66
2023/03/13 11:55:13;;;;;;;2.30;1.30;;;;;;;16.51;60.87;95548.84;2074474;28;20193;-66
2023/03/13 11:56:26;;;;;;;4.03;1.13;;;;;;;16.56;61.07;95552.75;2075584;28;20197;-66
2023/03/13 11:57:34;;;;;;;2.88;1.30;;;;;;;16.45;61.17;95558.09;2079907;28;20690;-66
2023/03/13 11:58:55;;;;;;;2.80;1.10;;;;;;;16.62;60.90;95541.69;2070221;28;20236;-66
2023/03/13 12:00:17;;;;;;;2.22;1.10;;;;;;;17.04;59.83;95548.66;2069009;28;20197;-66
2023/03/13 12:01:24;;;;;;;2.05;0.93;;;;;;;17.09;59.39;95535.88;2074288;28;20206;-66
2023/03/13 12:02:32;;;;;;;7.63;1.77;;;;;;;17.10;59.60;95499.78;2076658;28;20205;-66
2023/03/13 12:03:40;;;;;;;3.65;1.20;;;;;;;16.82;60.66;95528.56;2073793;28;20271;-66
2023/03/13 12:04:56;;;;;;;3.60;1.10;;;;;;;16.78;60.44;95522.72;2077662;28;20202;-66
2023/03/13 12:05:59;;;;;;;3.55;1.30;;;;;;;16.90;60.72;95525.25;2074935;28;20245;-66
2023/03/13 12:07:27;;;;;;;6.90;1.50;;;;;;;16.55;60.77;95524.72;2075383;28;20869;-66
2023/03/13 12:08:41;;;;;;;3.45;1.27;;;;;;;16.56;61.45;95531.66;2074725;28;20275;-66
2023/03/13 12:09:54;;;;;;;3.45;1.13;;;;;;;16.33;61.16;95494.97;2076595;28;20211;-66
2023/03/13 12:11:30;;;;;;;5.53;1.10;;;;;;;16.59;61.30;95509.50;2077427;28;20754;-66
2023/03/13 12:12:48;;;;;;;3.75;1.30;;;;;;;16.72;61.34;95507.47;2072456;28;20279;-66
2023/03/13 12:13:58;;;;;;;5.75;1.30;;;;;;;17.43;59.65;95493.31;2074263;28;20217;-66
2023/03/13 12:15:02;;;;;;;4.80;1.60;;;;;;;18.02;58.38;95500.38;2077210;28;20553;-66
2023/03/13 12:16:19;;;;;;;1.67;1.00;;;;;;;18.09;57.69;95464.47;2075830;28;20229;-66
2023/03/13 12:18:13;;;;;;;2.25;1.30;;;;;;;18.57;55.86;95473.19;2075533;28;20196;-67
2023/03/13 12:19:32;;;;;;;2.70;1.38;;;;;;;18.42;56.90;95459.59;2062563;28;20230;-66
2023/03/13 12:20:46;;;;;;;3.00;1.23;;;;;;;18.50;56.67;95467.66;2075952;28;20206;-66
2023/03/13 12:21:52;;;;;;;4.18;1.35;;;;;;;18.32;56.26;95459.66;2076464;28;20281;-66
2023/03/13 12:23:03;;;;;;;2.95;1.15;;;;;;;18.37;56.51;95464.50;2076326;28;20735;-66
2023/03/13 12:24:24;;;;;;;5.25;1.80;;;;;;;18.47;56.55;95456.53;2075087;28;20222;-66
2023/03/13 12:25:41;;;;;;;3.80;1.20;;;;;;;18.61;55.82;95466.59;2075128;28;20197;-66
2023/03/13 12:26:48;;;;;;;3.00;1.30;;;;;;;18.34;55.45;95447.13;2077462;28;20221;-66
2023/03/13 12:27:55;;;;;;;3.25;1.25;;;;;;;18.57;55.64;95447.56;2074723;28;20205;-67
2023/03/13 12:29:37;;;;;;;2.72;1.60;;;;;;;18.72;55.05;95445.25;2071592;28;20225;-68
2023/03/13 12:30:44;;;;;;;4.25;1.20;;;;;;;18.77;55.06;95443.00;2067190;28;20385;-66
2023/03/13 12:32:19;;;;;;;5.80;1.30;;;;;;;19.23;54.89;95436.88;2075518;28;20240;-66
2023/03/13 12:33:30;;;;;;;3.33;1.25;;;;;;;19.02;53.97;95435.38;2072710;28;20225;-66
2023/03/13 12:34:45;;;;;;;4.22;1.05;;;;;;;19.20;54.12;95424.78;2075070;28;20201;-66
2023/03/13 12:36:10;;;;;;;1.92;1.10;;;;;;;19.25;54.26;95427.81;2074656;28;20201;-66
2023/03/13 12:37:23;;;;;;;10.43;1.30;;;;;;;19.21;54.02;95415.00;2074014;28;20205;-67
2023/03/13 12:38:32;;;;;;;5.47;1.33;;;;;;;19.44;54.05;95410.09;2075073;28;20217;-66
2023/03/13 12:39:54;;;;;;;2.30;1.10;;;;;;;19.20;54.27;95408.09;2075685;28;20212;-66
2023/03/13 12:41:10;;;;;;;2.65;1.10;;;;;;;19.65;53.74;95409.75;2076029;28;20201;-66
2023/03/13 12:42:45;;;;;;;2.55;1.13;;;;;;;19.51;52.62;95410.31;2075843;28;20678;-66
2023/03/13 12:43:49;;;;;;;7.72;1.08;;;;;;;19.36;53.45;95386.19;2076210;28;20235;-66
2023/03/13 12:45:15;;;;;;;1.75;0.80;;;;;;;19.48;52.95;95384.97;2074419;28;20193;-66
2023/03/13 12:46:25;;;;;;;3.33;0.85;;;;;;;19.76;52.70;95379.53;2075443;28;20229;-67
2023/03/13 12:47:39;;;;;;;2.40;1.08;;;;;;;19.68;52.41;95382.97;2075075;28;20221;-66
2023/03/13 12:49:13;;;;;;;3.50;1.00;;;;;;;19.53;52.95;95374.75;2073733;28;20233;-66
2023/03/13 12:50:45;;;;;;;2.72;0.98;;;;;;;19.41;53.09;95368.91;2070013;28;20287;-66
2023/03/13 12:52:12;;;;;;;2.00;1.08;;;;;;;19.12;53.69;95377.06;2074885;28;20236;-66
2023/03/13 12:53:27;;;;;;;2.60;1.05;;;;;;;19.19;53.48;95370.19;2074279;28;20205;-66
2023/03/13 12:54:50;;;;;;;4.70;1.10;;;;;;;19.15;53.22;95363.56;2072273;28;20732;-66
2023/03/13 12:56:05;;;;;;;3.50;1.10;;;;;;;19.05;53.76;95360.97;2073044;28;20292;-66
2023/03/13 12:57:44;;;;;;;4.05;1.38;;;;;;;18.92;54.38;95360.56;2075008;28;20193;-66
2023/03/13 12:59:11;;;;;;;6.15;1.00;;;;;;;19.08;54.45;95363.34;2071463;28;20764;-66
2023/03/13 13:00:19;;;;;;;4.35;1.27;;;;;;;19.01;54.43;95354.34;2067866;28;20237;-66
2023/03/13 13:01:35;;;;;;;2.40;1.02;;;;;;;19.16;54.27;95348.50;2071242;28;20267;-66
2023/03/13 13:02:37;;;;;;;1.27;0.80;;;;;;;19.23;53.97;95349.56;2074739;28;20209;-67
2023/03/13 13:03:55;;;;;;;2.95;1.08;;;;;;;19.22;54.09;95345.25;2072534;28;20571;-66
2023/03/13 13:05:00;;;;;;;3.50;1.25;;;;;;;18.98;53.49;95349.38;2074347;28;20204;-67
2023/03/13 13:06:09;;;;;;;8.98;5.18;;;;;;;19.09;53.33;95335.88;2072065;28;20236;-67
2023/03/13 13:07:33;;;;;;;11.18;3.35;;;;;;;19.09;53.31;95346.47;2074393;28;20256;-66
2023/03/13 13:08:41;;;;;;;5.60;2.97;;;;;;;19.18;52.96;95334.13;2073289;28;20221;-66
2023/03/13 13:10:08;;;;;;;2.35;0.93;;;;;;;19.22;53.39;95339.94;2074973;28;20201;-67
2023/03/13 13:11:38;;;;;;;5.78;1.10;;;;;;;19.16;52.65;95349.34;2076770;28;20213;-66
2023/03/13 13:13:01;;;;;;;2.90;1.13;;;;;;;19.20;52.96;95326.88;2075792;28;20848;-66
2023/03/13 13:14:14;;;;;;;1.98;0.80;;;;;;;19.02;52.66;95329.56;2057395;28;20688;-66
2023/03/13 13:15:26;;;;;;;2.47;0.80;;;;;;;18.76;53.09;95325.00;2075923;28;20221;-66
2023/03/13 13:16:28;;;;;;;1.60;0.80;;;;;;;18.67;53.41;95312.69;2074745;28;20664;-66
2023/03/13 13:17:43;;;;;;;3.42;0.80;;;;;;;18.64;53.47;95305.06;2084419;28;20197;-67
2023/03/13 13:18:44;;;;;;;1.77;0.80;;;;;;;18.58;53.69;95309.13;2080406;28;20755;-66
2023/03/13 13:19:47;;;;;;;10.32;1.40;;;;;;;18.64;53.31;95314.78;2074494;28;20276;-66
2023/03/13 13:21:14;;;;;;;6.85;1.05;;;;;;;18.68;52.93;95310.91;2074225;28;20665;-67
2023/03/13 13:22:36;;;;;;;3.92;1.10;;;;;;;18.41;53.36;95300.22;2075557;28;20197;-66
2023/03/13 13:23:45;;;;;;;1.75;0.80;;;;;;;18.30;52.76;95296.94;2074707;28;20252;-66
2023/03/13 13:24:50;;;;;;;2.72;1.00;;;;;;;18.16;53.20;95299.13;2075710;28;20243;-66
2023/03/13 13:25:54;;;;;;;1.83;0.80;;;;;;;18.13;53.08;95296.78;2072111;28;20223;-67
2023/03/13 13:26:56;;;;;;;1.65;0.70;;;;;;;18.13;53.08;95278.28;2072881;28;20648;-66
2023/03/13 13:28:14;;;;;;;2.95;1.10;;;;;;;18.14;53.03;95281.78;2071208;28;20198;-66
2023/03/13 13:29:25;;;;;;;2.15;0.80;;;;;;;18.32;52.38;95285.28;2072513;28;20208;-66
2023/03/13 13:30:31;;;;;;;2.03;0.98;;;;;;;18.35;52.72;95282.31;2078137;28;20707;-66
2023/03/13 13:31:50;;;;;;;4.00;0.90;;;;;;;18.64;52.57;95277.78;2074585;28;20193;-67
2023/03/13 13:32:53;;;;;;;3.67;1.00;;;;;;;18.79;52.15;95278.91;2078800;28;20232;-67
2023/03/13 13:33:55;;;;;;;7.72;1.40;;;;;;;18.80;51.50;95283.22;2077762;28;20220;-66
2023/03/13 13:35:05;;;;;;;2.35;1.08;;;;;;;18.69;51.45;95271.09;2076472;28;20232;-66
2023/03/13 13:36:20;;;;;;;2.15;0.85;;;;;;;18.72;52.13;95269.94;2074887;28;20240;-66
2023/03/13 13:37:21;;;;;;;3.50;1.10;;;;;;;18.89;52.06;95268.25;2075705;28;20204;-66
2023/03/13 13:38:35;;;;;;;4.43;0.90;;;;;;;18.94;51.73;95273.94;2074936;28;20578;-66
2023/03/13 13:39:49;;;;;;;2.85;1.00;;;;;;;18.89;52.22;95262.97;2074862;28;20235;-66
2023/03/13 13:41:09;;;;;;;2.33;0.90;;;;;;;18.82;52.21;95270.69;2071990;28;20720;-65
2023/03/13 13:42:29;;;;;;;6.53;1.00;;;;;;;18.74;51.88;95254.75;2074507;28;20292;-65
2023/03/13 13:43:36;;;;;;;1.50;0.80;;;;;;;18.59;52.00;95262.41;2071969;28;20221;-66
2023/03/13 13:44:56;;;;;;;2.20;1.00;;;;;;;18.67;51.74;95261.63;2071544;28;20205;-65
2023/03/13 13:46:27;;;;;;;2.30;0.88;;;;;;;18.63;51.99;95239.97;2073211;28;20287;-65
2023/03/13 13:47:31;;;;;;;2.67;0.90;;;;;;;18.48;52.16;95262.63;2072637;28;20213;-65
2023/03/13 13:48:38;;;;;;;1.60;0.90;;;;;;;18.47;52.66;95264.44;2073768;28;20217;-66
2023/03/13 13:49:53;;;;;;;2.47;1.10;;;;;;;18.56;52.59;95260.91;2073830;28;20205;-65
2023/03/13 13:51:10;;;;;;;3.88;0.82;;;;;;;18.72;52.11;95259.38;2075123;28;20197;-65
2023/03/13 13:52:11;;;;;;;2.63;1.10;;;;;;;18.85;51.81;95238.63;2074934;28;20200;-65
2023/03/13 13:53:29;;;;;;;3.85;1.10;;;;;;;18.72;52.10;95241.69;2075835;28;20193;-65
2023/03/13 13:54:46;;;;;;;3.20;0.70;;;;;;;18.42;52.54;95200.63;2074759;28;20304;-65
2023/03/13 13:55:48;;;;;;;1.98;0.80;;;;;;;18.61;51.67;95247.19;2076391;28;20243;-65
2023/03/13 13:57:05;;;;;;;3.05;0.80;;;;;;;18.62;51.90;95240.94;2075014;28;20232;-65
2023/03/13 13:58:23;;;;;;;1.90;0.80;;;;;;;18.52;52.35;95226.97;2074456;28;20280;-65
2023/03/13 13:59:47;;;;;;;1.50;0.70;;;;;;;18.68;51.58;95239.50;2074173;28;20840;-65
2023/03/13 14:00:57;;;;;;;1.30;0.60;;;;;;;18.85;51.63;95236.00;2074018;28;20194;-65
2023/03/13 14:02:02;;;;;;;2.75;1.05;;;;;;;18.93;51.67;95233.44;2078073;28;20204;-65
2023/03/13 14:03:17;;;;;;;3.17;1.00;;;;;;;19.09;51.66;95235.34;2077731;28;20201;-65
2023/03/13 14:04:28;;;;;;;1.42;0.80;;;;;;;19.27;51.61;95223.88;2074754;28;20561;-65
2023/03/13 14:05:31;;;;;;;5.03;0.80;;;;;;;19.21;51.36;95220.06;2075279;28;20235;-66
2023/03/13 14:06:35;;;;;;;3.47;1.10;;;;;;;18.95;51.40;95222.72;2075973;28;20198;-65
2023/03/13 14:07:40;;;;;;;2.30;0.85;;;;;;;18.83;51.34;95229.19;2075234;28;20194;-65
2023/03/13 14:08:43;;;;;;;5.05;1.10;;;;;;;18.76;51.74;95219.22;2075055;28;20276;-65
2023/03/13 14:09:48;;;;;;;2.25;0.80;;;;;;;18.71;52.06;95221.50;2076561;28;20193;-65
2023/03/13 14:11:24;;;;;;;1.63;0.80;;;;;;;18.79;52.04;95210.16;2075623;28;20202;-65
2023/03/13 14:12:37;;;;;;;5.13;0.80;;;;;;;18.86;52.46;95208.56;2075680;28;20657;-65
2023/03/13 14:13:39;;;;;;;1.52;0.63;;;;;;;18.64;52.05;95191.41;2073236;28;20302;-65
2023/03/13 14:14:40;;;;;;;5.15;0.90;;;;;;;18.57;52.66;95193.00;2074911;28;20210;-65
2023/03/13 14:15:47;;;;;;;3.35;0.80;;;;;;;18.74;52.35;95197.41;2071819;28;20224;-65
2023/03/13 14:16:56;;;;;;;5.25;1.13;;;;;;;19.08;51.80;95191.41;2073719;28;20206;-65
2023/03/13 14:18:08;;;;;;;3.97;0.80;;;;;;;19.08;51.50;95195.84;2075245;28;20236;-65
2023/03/13 14:19:31;;;;;;;7.43;1.30;;;;;;;19.00;51.80;95198.44;2075158;28;20201;-65
2023/03/13 14:20:53;;;;;;;4.53;1.05;;;;;;;18.85;52.38;95195.50;2076996;28;20208;-65
2023/03/13 14:22:00;;;;;;;1.40;1.10;;;;;;;19.04;52.25;95191.84;2076603;28;20194;-65
2023/03/13 14:23:05;;;;;;;4.32;0.80;;;;;;;19.13;51.48;95195.38;2074851;28;20204;-65
2023/03/13 14:24:13;;;;;;;2.40;0.90;;;;;;;19.50;50.24;95181.00;2075044;28;20250;-66
2023/03/13 14:25:15;;;;;;;4.68;1.10;;;;;;;19.88;50.10;95184.13;2073237;28;20710;-65
2023/03/13 14:26:23;;;;;;;2.15;0.90;;;;;;;20.13;49.43;95179.72;2077486;28;20200;-65
2023/03/13 14:27:25;;;;;;;1.70;0.77;;;;;;;20.14;49.66;95185.84;2074900;28;20201;-65
2023/03/13 14:28:28;;;;;;;2.88;1.10;;;;;;;20.27;49.82;95178.22;2075847;28;20316;-65
2023/03/13 14:29:30;;;;;;;2.00;0.90;;;;;;;20.25;49.32;95172.25;2076177;28;20197;-65
2023/03/13 14:30:31;;;;;;;5.55;1.00;;;;;;;20.36;49.52;95168.47;2076856;28;20208;-65
2023/03/13 14:31:37;;;;;;;1.50;0.93;;;;;;;20.30;48.80;95169.97;2069021;28;20245;-65
2023/03/13 14:32:39;;;;;;;1.67;0.95;;;;;;;20.56;48.89;95175.09;2069622;28;20242;-65
2023/03/13 14:33:41;;;;;;;3.83;0.93;;;;;;;20.36;49.24;95169.28;2076057;28;20592;-65
2023/03/13 14:34:42;;;;;;;4.82;0.80;;;;;;;20.40;48.77;95161.84;2077155;28;20220;-65
2023/03/13 14:35:44;;;;;;;7.65;0.88;;;;;;;20.45;49.11;95166.66;2075489;28;20526;-66
2023/03/13 14:36:51;;;;;;;4.60;0.70;;;;;;;20.47;48.65;95167.31;2076954;28;20255;-67
2023/03/13 14:38:02;;;;;;;1.98;0.82;;;;;;;19.90;49.29;95172.38;2074590;28;20194;-65
2023/03/13 14:39:04;;;;;;;3.70;0.90;;;;;;;20.00;49.44;95160.81;2076296;28;20576;-65
2023/03/13 14:40:27;;;;;;;2.97;0.88;;;;;;;20.22;48.85;95149.56;2076416;28;20229;-65
2023/03/13 14:41:31;;;;;;;7.43;1.00;;;;;;;20.41;48.65;95150.25;2077459;28;20824;-66
2023/03/13 14:42:40;;;;;;;1.48;0.63;;;;;;;20.56;48.28;95153.88;2076838;28;20209;-65
2023/03/13 14:43:42;;;;;;;7.28;0.90;;;;;;;20.62;48.39;95148.91;2074635;28;20222;-66
2023/03/13 14:44:46;;;;;;;2.05;1.00;;;;;;;20.65;48.14;95138.78;2076080;28;20558;-65
2023/03/13 14:45:48;;;;;;;2.22;1.00;;;;;;;20.45;48.54;95146.25;2077217;28;20212;-67
2023/03/13 14:47:04;;;;;;;1.90;0.80;;;;;;;20.63;48.60;95134.66;2077108;28;20202;-67
2023/03/13 14:48:19;;;;;;;1.58;0.80;;;;;;;20.53;48.09;95109.16;2076347;28;20247;-67
2023/03/13 14:49:24;;;;;;;2.97;0.85;;;;;;;20.69;47.80;95126.84;2075973;28;20599;-67
2023/03/13 14:50:26;;;;;;;1.90;0.77;;;;;;;20.57;48.60;95130.84;2077220;28;20285;-67
2023/03/13 14:51:27;;;;;;;2.50;0.70;;;;;;;20.91;47.93;95124.50;2079950;28;20200;-67